Time;durP1;ratioP1;P1;durP2;ratioP2;P2;SDS_P1;SDS_P2;PMS_P1;PMS_P2;Temp;Humidity;BMP_temperature;BMP_pressure;BME280_temperature;BME280_humidity;BME280_pressure;Samples;Min_cycle;Max_cycle;Signal;HPM_P1;HPM_P2
2023/10/11 00:00:34;;;;;;;10.73;8.13;;;;;;;;;;5038603;28;20994;-80
2023/10/11 00:03:05;;;;;;;13.40;7.10;;;;;;;;;;5038946;28;20490;-80
2023/10/11 00:05:39;;;;;;;11.83;7.00;;;;;;;;;;5038376;28;20491;-80
2023/10/11 00:08:08;;;;;;;15.13;8.10;;;;;;;;;;5038198;28;20440;-80
2023/10/11 00:10:42;;;;;;;8.63;7.77;;;;;;;;;;5038676;28;20469;-80
2023/10/11 00:13:10;;;;;;;14.43;8.00;;;;;;;;;;5037059;28;20472;-80
2023/10/11 00:15:36;;;;;;;10.97;6.63;;;;;;;;;;5038203;28;20463;-79
2023/10/11 00:18:03;;;;;;;14.57;7.77;;;;;;;;;;5037986;28;20444;-79
2023/10/11 00:20:35;;;;;;;13.07;7.57;;;;;;;;;;5036281;28;20465;-79
2023/10/11 00:23:01;;;;;;;13.37;7.93;;;;;;;;;;5037844;28;20461;-80
2023/10/11 00:25:28;;;;;;;12.80;8.00;;;;;;;;;;5037481;28;20471;-80
2023/10/11 00:27:56;;;;;;;15.83;8.03;;;;;;;;;;5037918;28;20901;-80
2023/10/11 00:30:24;;;;;;;15.20;7.83;;;;;;;;;;5037583;28;20484;-79
2023/10/11 00:32:52;;;;;;;11.87;7.30;;;;;;;;;;5038585;28;20495;-79
2023/10/11 00:35:19;;;;;;;13.20;7.17;;;;;;;;;;5038006;28;20849;-79
2023/10/11 00:37:47;;;;;;;9.40;6.80;;;;;;;;;;5038885;28;20455;-81
2023/10/11 00:40:14;;;;;;;8.90;7.67;;;;;;;;;;5036700;28;20472;-80
2023/10/11 00:42:41;;;;;;;11.37;7.07;;;;;;;;;;5037372;28;20476;-80
2023/10/11 00:45:09;;;;;;;12.77;7.43;;;;;;;;;;5035778;28;20473;-80
2023/10/11 00:47:40;;;;;;;11.47;9.27;;;;;;;;;;5035579;28;20535;-80
2023/10/11 00:50:08;;;;;;;12.57;7.43;;;;;;;;;;5035462;28;21051;-79
2023/10/11 00:52:35;;;;;;;13.40;7.73;;;;;;;;;;5036736;28;20436;-79
2023/10/11 00:55:08;;;;;;;14.10;7.80;;;;;;;;;;5034487;28;20519;-80
2023/10/11 00:57:36;;;;;;;14.27;8.90;;;;;;;;;;5036839;28;20926;-80
2023/10/11 01:00:04;;;;;;;11.93;7.60;;;;;;;;;;5036474;28;20473;-80
2023/10/11 01:02:32;;;;;;;11.70;7.93;;;;;;;;;;5037896;28;20508;-79
2023/10/11 01:05:01;;;;;;;11.60;7.60;;;;;;;;;;5035150;28;20465;-79
2023/10/11 01:07:28;;;;;;;11.50;8.77;;;;;;;;;;5036871;28;20456;-79
2023/10/11 01:09:57;;;;;;;15.50;9.13;;;;;;;;;;5037433;28;20496;-80
2023/10/11 01:12:23;;;;;;;12.60;8.37;;;;;;;;;;5037381;28;20437;-81
2023/10/11 01:14:57;;;;;;;15.40;8.27;;;;;;;;;;5036765;28;21032;-80
2023/10/11 01:17:25;;;;;;;15.53;7.60;;;;;;;;;;5037246;28;20445;-80
2023/10/11 01:19:52;;;;;;;12.13;8.10;;;;;;;;;;5035157;28;20522;-85
2023/10/11 01:22:19;;;;;;;13.60;8.07;;;;;;;;;;5036572;28;20901;-81
2023/10/11 01:24:47;;;;;;;15.07;9.60;;;;;;;;;;5036547;28;20472;-81
2023/10/11 01:27:14;;;;;;;17.33;9.57;;;;;;;;;;5019254;28;20835;-81
2023/10/11 01:29:41;;;;;;;12.77;8.17;;;;;;;;;;5018500;28;20817;-81
2023/10/11 01:32:08;;;;;;;13.00;8.87;;;;;;;;;;5035135;28;20441;-80
2023/10/11 01:34:35;;;;;;;12.00;8.97;;;;;;;;;;5034446;28;20876;-81
2023/10/11 01:37:01;;;;;;;15.50;11.30;;;;;;;;;;5035004;28;20472;-80
2023/10/11 01:39:32;;;;;;;13.97;9.20;;;;;;;;;;5034633;28;20439;-80
2023/10/11 01:41:59;;;;;;;14.60;9.03;;;;;;;;;;5036264;28;20464;-81
2023/10/11 01:44:25;;;;;;;11.20;8.20;;;;;;;;;;5034369;28;20469;-80
2023/10/11 01:46:52;;;;;;;14.10;8.93;;;;;;;;;;5034470;28;20499;-81
2023/10/11 01:49:18;;;;;;;14.40;8.93;;;;;;;;;;5036334;28;20532;-80
2023/10/11 01:51:47;;;;;;;12.90;9.40;;;;;;;;;;5034369;28;20495;-81
2023/10/11 01:54:15;;;;;;;18.37;10.27;;;;;;;;;;5033639;28;20476;-81
2023/10/11 01:56:43;;;;;;;13.03;9.43;;;;;;;;;;5036739;28;20531;-80
2023/10/11 01:59:12;;;;;;;14.87;9.33;;;;;;;;;;5033966;28;21009;-81
2023/10/11 02:01:43;;;;;;;13.23;9.50;;;;;;;;;;5034758;28;20461;-80
2023/10/11 02:04:16;;;;;;;16.77;11.13;;;;;;;;;;5036450;28;20491;-82
2023/10/11 02:06:43;;;;;;;15.27;9.97;;;;;;;;;;5035899;28;20471;-80
2023/10/11 02:09:11;;;;;;;17.03;10.10;;;;;;;;;;5035776;28;20468;-81
2023/10/11 02:11:41;;;;;;;17.83;10.07;;;;;;;;;;5035234;28;20496;-81
2023/10/11 02:14:09;;;;;;;16.03;10.17;;;;;;;;;;5035942;28;20471;-81
2023/10/11 02:16:36;;;;;;;16.00;10.47;;;;;;;;;;5035259;28;20457;-81
2023/10/11 02:19:05;;;;;;;13.83;9.50;;;;;;;;;;5035063;28;20445;-82
2023/10/11 02:21:32;;;;;;;16.30;10.43;;;;;;;;;;5034933;28;20990;-81
2023/10/11 02:23:58;;;;;;;16.87;9.93;;;;;;;;;;5033855;28;20488;-80
2023/10/11 02:26:28;;;;;;;16.27;10.33;;;;;;;;;;5034594;28;20531;-80
2023/10/11 02:28:55;;;;;;;17.30;9.93;;;;;;;;;;5035220;28;20448;-81
2023/10/11 02:31:24;;;;;;;17.47;11.20;;;;;;;;;;5033946;28;20990;-81
2023/10/11 02:33:51;;;;;;;15.57;10.17;;;;;;;;;;5035200;28;20478;-82
2023/10/11 02:36:18;;;;;;;17.80;10.30;;;;;;;;;;5033805;28;20490;-80
2023/10/11 02:38:50;;;;;;;17.93;11.23;;;;;;;;;;5034950;28;20448;-81
2023/10/11 02:41:20;;;;;;;17.27;10.17;;;;;;;;;;5033747;28;20473;-80
2023/10/11 02:43:49;;;;;;;14.67;10.47;;;;;;;;;;5034938;28;20992;-81
2023/10/11 02:46:17;;;;;;;13.80;9.50;;;;;;;;;;5031602;28;20538;-80
2023/10/11 02:48:46;;;;;;;14.07;11.80;;;;;;;;;;5033718;28;20436;-81
2023/10/11 02:51:16;;;;;;;18.00;9.80;;;;;;;;;;5034738;28;20473;-81
2023/10/11 02:53:43;;;;;;;12.30;9.80;;;;;;;;;;5035010;28;20452;-80
2023/10/11 02:56:11;;;;;;;17.50;10.07;;;;;;;;;;5033320;28;21056;-80
2023/10/11 02:58:39;;;;;;;18.17;11.30;;;;;;;;;;5034138;28;20451;-81
2023/10/11 03:01:14;;;;;;;17.57;10.00;;;;;;;;;;5033178;28;20496;-81
2023/10/11 03:03:40;;;;;;;16.50;10.73;;;;;;;;;;5034467;28;20480;-82
2023/10/11 03:06:08;;;;;;;15.70;10.53;;;;;;;;;;5033555;28;20477;-81
2023/10/11 03:08:35;;;;;;;18.40;10.70;;;;;;;;;;5034468;28;20449;-81
2023/10/11 03:11:04;;;;;;;15.93;10.60;;;;;;;;;;5031782;28;20987;-80
2023/10/11 03:13:40;;;;;;;13.50;10.57;;;;;;;;;;5036029;28;20457;-80
2023/10/11 03:16:11;;;;;;;19.73;10.53;;;;;;;;;;5036897;28;20460;-80
2023/10/11 03:18:39;;;;;;;21.50;10.90;;;;;;;;;;5038652;28;20440;-81
2023/10/11 03:21:17;;;;;;;15.53;10.90;;;;;;;;;;5038186;28;20468;-81
2023/10/11 03:23:44;;;;;;;13.80;10.03;;;;;;;;;;5038489;28;21000;-81
2023/10/11 03:26:16;;;;;;;16.87;11.10;;;;;;;;;;5036003;28;21002;-81
2023/10/11 03:28:43;;;;;;;16.93;12.17;;;;;;;;;;5036909;28;20425;-81
2023/10/11 03:31:12;;;;;;;23.47;10.63;;;;;;;;;;5036131;28;20476;-80
2023/10/11 03:33:40;;;;;;;13.67;10.27;;;;;;;;;;5037801;28;20492;-81
2023/10/11 03:36:17;;;;;;;18.60;10.80;;;;;;;;;;5036084;28;20464;-81
2023/10/11 03:38:51;;;;;;;23.30;12.30;;;;;;;;;;5037185;28;20464;-81
2023/10/11 03:41:18;;;;;;;14.70;10.87;;;;;;;;;;5036931;28;20471;-82
2023/10/11 03:43:45;;;;;;;22.63;12.67;;;;;;;;;;5038549;28;20487;-81
2023/10/11 03:46:13;;;;;;;16.37;11.20;;;;;;;;;;5036518;28;21020;-80
2023/10/11 03:48:44;;;;;;;17.40;10.97;;;;;;;;;;5038421;28;20502;-81
2023/10/11 03:51:12;;;;;;;15.93;10.37;;;;;;;;;;5037962;28;20495;-81
2023/10/11 03:53:39;;;;;;;15.50;10.83;;;;;;;;;;5037561;28;20455;-81
2023/10/11 03:56:08;;;;;;;16.17;11.37;;;;;;;;;;5037806;28;20465;-79
2023/10/11 03:58:37;;;;;;;17.50;12.03;;;;;;;;;;5038281;28;20437;-79
2023/10/11 04:01:11;;;;;;;15.00;10.50;;;;;;;;;;5037370;28;20474;-79
2023/10/11 04:03:39;;;;;;;20.90;10.83;;;;;;;;;;5037833;28;20579;-79
2023/10/11 04:06:13;;;;;;;20.23;12.30;;;;;;;;;;5037096;28;20556;-79
2023/10/11 04:08:41;;;;;;;15.90;11.57;;;;;;;;;;5037896;28;20535;-80
2023/10/11 04:11:17;;;;;;;15.30;11.20;;;;;;;;;;5037954;28;20473;-79
2023/10/11 04:13:45;;;;;;;17.90;10.53;;;;;;;;;;5037750;28;20514;-79
2023/10/11 04:16:12;;;;;;;17.60;11.37;;;;;;;;;;5036842;28;20571;-80
2023/10/11 04:18:39;;;;;;;17.67;11.27;;;;;;;;;;5037211;28;20495;-79
2023/10/11 04:23:55;;;;;;;15.50;10.87;;;;;;;;;;5011098;28;20488;-80
2023/10/11 04:29:17;;;;;;;16.10;10.60;;;;;;;;;;5036690;28;20820;-80
2023/10/11 04:31:55;;;;;;;18.80;10.60;;;;;;;;;;5036780;28;20456;-81
2023/10/11 04:34:23;;;;;;;17.40;10.43;;;;;;;;;;5036833;28;20448;-79
2023/10/11 04:36:51;;;;;;;16.03;11.57;;;;;;;;;;5037043;28;20449;-79
2023/10/11 04:39:27;;;;;;;15.60;10.30;;;;;;;;;;5034808;28;20531;-80
2023/10/11 04:41:57;;;;;;;18.23;10.57;;;;;;;;;;5036846;28;20802;-82
2023/10/11 04:44:23;;;;;;;15.57;10.37;;;;;;;;;;5037529;28;20484;-80
2023/10/11 04:46:57;;;;;;;16.70;12.13;;;;;;;;;;5038405;28;20783;-80
2023/10/11 04:49:24;;;;;;;16.40;10.97;;;;;;;;;;5034795;28;20430;-81
2023/10/11 04:51:55;;;;;;;20.57;12.20;;;;;;;;;;5036773;28;20567;-79
2023/10/11 04:54:28;;;;;;;21.03;11.37;;;;;;;;;;5036045;28;20461;-82
2023/10/11 04:56:59;;;;;;;14.10;10.33;;;;;;;;;;5036372;28;20431;-79
2023/10/11 04:59:36;;;;;;;13.93;10.50;;;;;;;;;;5035576;28;20959;-80
2023/10/11 05:02:08;;;;;;;16.30;11.67;;;;;;;;;;5036365;28;20797;-79
2023/10/11 05:04:41;;;;;;;17.47;10.80;;;;;;;;;;5035766;28;20464;-80
2023/10/11 05:07:09;;;;;;;13.90;9.90;;;;;;;;;;5036370;28;20440;-79
2023/10/11 05:09:39;;;;;;;17.67;10.87;;;;;;;;;;5036005;28;20460;-79
2023/10/11 05:12:12;;;;;;;15.40;10.60;;;;;;;;;;5036946;28;20415;-82
2023/10/11 05:14:56;;;;;;;22.80;10.97;;;;;;;;;;5035693;28;20503;-82
2023/10/11 05:17:41;;;;;;;16.60;10.80;;;;;;;;;;5036516;28;20900;-82
2023/10/11 05:23:02;;;;;;;17.73;11.93;;;;;;;;;;5036364;28;20460;-81
2023/10/11 05:25:52;;;;;;;17.80;11.07;;;;;;;;;;5035067;28;20471;-80
2023/10/11 05:28:43;;;;;;;22.30;12.43;;;;;;;;;;5036529;28;20461;-81
2023/10/11 05:31:19;;;;;;;16.10;10.30;;;;;;;;;;5034936;28;20465;-79
2023/10/11 05:34:12;;;;;;;17.40;11.20;;;;;;;;;;5035235;28;20460;-81
2023/10/11 05:36:48;;;;;;;17.30;11.40;;;;;;;;;;5036228;28;20496;-80
2023/10/11 05:52:55;;;;;;;16.70;11.00;;;;;;;;;;5036253;28;20389;-79
2023/10/11 05:55:22;;;;;;;15.70;10.80;;;;;;;;;;5036354;28;20483;-81
2023/10/11 05:57:51;;;;;;;18.10;11.10;;;;;;;;;;5036029;28;20447;-79
2023/10/11 06:00:25;;;;;;;14.07;10.10;;;;;;;;;;5033648;28;20451;-82
2023/10/11 06:02:52;;;;;;;20.07;10.30;;;;;;;;;;5035567;28;20500;-80
2023/10/11 06:05:22;;;;;;;19.50;11.83;;;;;;;;;;5033526;28;21004;-80
2023/10/11 06:08:00;;;;;;;18.03;10.80;;;;;;;;;;5034542;28;20513;-82
2023/10/11 06:10:29;;;;;;;23.20;11.53;;;;;;;;;;5035553;28;20529;-81
2023/10/11 06:12:58;;;;;;;12.10;9.80;;;;;;;;;;5035489;28;20816;-81
2023/10/11 06:15:26;;;;;;;22.73;11.73;;;;;;;;;;5034435;28;20541;-80
2023/10/11 06:17:55;;;;;;;18.97;11.30;;;;;;;;;;5034944;28;20456;-81
2023/10/11 06:20:26;;;;;;;16.03;10.10;;;;;;;;;;5034489;28;20496;-81
2023/10/11 06:22:53;;;;;;;25.30;10.07;;;;;;;;;;5033895;28;20445;-80
2023/10/11 06:25:23;;;;;;;19.83;11.63;;;;;;;;;;5032010;28;20473;-80
2023/10/11 06:30:42;;;;;;;13.40;9.77;;;;;;;;;;5019098;28;20543;-81
2023/10/11 06:33:11;;;;;;;20.40;10.50;;;;;;;;;;5033713;28;20488;-80
2023/10/11 06:35:43;;;;;;;20.67;11.83;;;;;;;;;;5035001;28;20537;-80
2023/10/11 06:38:10;;;;;;;21.80;10.87;;;;;;;;;;5035982;28;20421;-80
2023/10/11 06:40:38;;;;;;;14.23;10.03;;;;;;;;;;5016925;28;20479;-80
2023/10/11 06:43:05;;;;;;;15.30;10.57;;;;;;;;;;5035945;28;21005;-82
2023/10/11 06:45:32;;;;;;;17.03;10.60;;;;;;;;;;5034565;28;20476;-81
2023/10/11 06:48:06;;;;;;;16.50;10.80;;;;;;;;;;5034074;28;20445;-79
2023/10/11 06:50:35;;;;;;;15.93;11.50;;;;;;;;;;5036569;28;20475;-79
2023/10/11 06:53:03;;;;;;;21.87;10.73;;;;;;;;;;5038798;28;20459;-80
2023/10/11 06:55:30;;;;;;;15.77;9.53;;;;;;;;;;5039537;28;20547;-80
2023/10/11 06:57:56;;;;;;;14.60;10.17;;;;;;;;;;5039189;28;20452;-80
2023/10/11 07:00:23;;;;;;;19.50;10.97;;;;;;;;;;5038835;28;20507;-79
2023/10/11 07:02:50;;;;;;;17.43;10.87;;;;;;;;;;5038320;28;20452;-79
2023/10/11 07:05:19;;;;;;;15.33;10.90;;;;;;;;;;5037755;28;20455;-80
2023/10/11 07:07:48;;;;;;;15.37;10.33;;;;;;;;;;5039615;28;20448;-80
2023/10/11 07:10:28;;;;;;;24.27;11.90;;;;;;;;;;5038350;28;20468;-80
2023/10/11 07:13:03;;;;;;;15.83;11.03;;;;;;;;;;5037869;28;20404;-80
2023/10/11 07:15:31;;;;;;;24.63;11.77;;;;;;;;;;5037779;28;20491;-81
2023/10/11 07:17:57;;;;;;;15.93;10.03;;;;;;;;;;5032642;28;20460;-81
2023/10/11 07:20:47;;;;;;;19.07;11.43;;;;;;;;;;5037760;28;20447;-79
2023/10/11 07:23:18;;;;;;;16.07;11.90;;;;;;;;;;5038438;28;20649;-81
2023/10/11 07:25:45;;;;;;;18.80;11.30;;;;;;;;;;5039602;28;20432;-81
2023/10/11 07:28:14;;;;;;;21.13;11.50;;;;;;;;;;5038610;28;20483;-81
2023/10/11 07:30:40;;;;;;;17.43;12.40;;;;;;;;;;5038399;28;20479;-82
2023/10/11 07:33:11;;;;;;;16.97;11.57;;;;;;;;;;5038524;28;20472;-78
2023/10/11 07:35:47;;;;;;;21.93;12.80;;;;;;;;;;5037203;28;20459;-79
2023/10/11 07:38:14;;;;;;;21.67;10.77;;;;;;;;;;5038015;28;21020;-79
2023/10/11 07:40:46;;;;;;;23.23;11.40;;;;;;;;;;5038510;28;20953;-82
2023/10/11 07:43:15;;;;;;;14.57;10.63;;;;;;;;;;5038228;28;20551;-82
2023/10/11 07:45:47;;;;;;;20.47;11.87;;;;;;;;;;5038547;28;20864;-83
2023/10/11 07:48:14;;;;;;;26.60;12.07;;;;;;;;;;5038105;28;20463;-82
2023/10/11 07:50:42;;;;;;;29.23;12.20;;;;;;;;;;5037893;28;20446;-82
2023/10/11 07:53:13;;;;;;;15.67;11.50;;;;;;;;;;5036430;28;20530;-81
2023/10/11 07:55:40;;;;;;;21.20;12.83;;;;;;;;;;5038010;28;20425;-81
2023/10/11 07:58:08;;;;;;;23.60;13.13;;;;;;;;;;5037389;28;20982;-80
2023/10/11 08:00:40;;;;;;;21.20;13.00;;;;;;;;;;5036294;28;20488;-81
2023/10/11 08:03:08;;;;;;;18.40;12.30;;;;;;;;;;5037035;28;20472;-81
2023/10/11 08:05:36;;;;;;;19.10;12.30;;;;;;;;;;5038005;28;20459;-82
2023/10/11 08:08:05;;;;;;;17.53;12.53;;;;;;;;;;5037263;28;20896;-81
2023/10/11 08:10:34;;;;;;;18.93;12.77;;;;;;;;;;5037570;28;20535;-80
2023/10/11 08:13:02;;;;;;;25.90;11.20;;;;;;;;;;5036117;28;20480;-82
2023/10/11 08:15:29;;;;;;;18.73;11.80;;;;;;;;;;5036473;28;20444;-81
2023/10/11 08:17:55;;;;;;;16.80;11.47;;;;;;;;;;5036339;28;20540;-81
2023/10/11 08:20:28;;;;;;;19.70;13.03;;;;;;;;;;5036922;28;20448;-80
2023/10/11 08:22:55;;;;;;;17.87;12.67;;;;;;;;;;5037119;28;20548;-81
2023/10/11 08:25:26;;;;;;;24.07;12.97;;;;;;;;;;5019639;28;20481;-80
2023/10/11 08:28:10;;;;;;;19.93;14.97;;;;;;;;;;5035848;28;20464;-81
2023/10/11 08:30:37;;;;;;;19.40;13.67;;;;;;;;;;5035902;28;20445;-81
2023/10/11 08:33:04;;;;;;;26.13;13.70;;;;;;;;;;5035321;28;20469;-80
2023/10/11 08:35:32;;;;;;;19.93;13.23;;;;;;;;;;5036645;28;20445;-81
2023/10/11 08:38:02;;;;;;;21.03;13.37;;;;;;;;;;5035341;28;20463;-81
2023/10/11 08:40:34;;;;;;;17.57;13.80;;;;;;;;;;5035904;28;20445;-80
2023/10/11 08:43:02;;;;;;;23.20;13.40;;;;;;;;;;5036203;28;20469;-82
2023/10/11 08:45:32;;;;;;;25.70;14.10;;;;;;;;;;5036835;28;20704;-81
2023/10/11 08:47:59;;;;;;;19.50;13.93;;;;;;;;;;5036671;28;20483;-81
2023/10/11 08:50:26;;;;;;;22.43;14.10;;;;;;;;;;5036732;28;20441;-82
2023/10/11 08:52:55;;;;;;;29.00;14.47;;;;;;;;;;5018155;28;20469;-81
2023/10/11 08:55:24;;;;;;;20.97;15.40;;;;;;;;;;5036832;28;20467;-79
2023/10/11 08:57:53;;;;;;;23.20;15.30;;;;;;;;;;5036426;28;20441;-79
2023/10/11 09:00:29;;;;;;;22.27;15.00;;;;;;;;;;5036556;28;20942;-80
2023/10/11 09:02:55;;;;;;;19.00;13.30;;;;;;;;;;5035749;28;20532;-81
2023/10/11 09:05:29;;;;;;;23.67;14.60;;;;;;;;;;5036348;28;20484;-80
2023/10/11 09:07:56;;;;;;;28.07;15.23;;;;;;;;;;5035878;28;20465;-81
2023/10/11 09:10:25;;;;;;;22.23;14.77;;;;;;;;;;5037123;28;20437;-82
2023/10/11 09:12:56;;;;;;;25.03;15.43;;;;;;;;;;5035944;28;20449;-79
2023/10/11 09:15:24;;;;;;;23.73;17.20;;;;;;;;;;5036406;28;20468;-82
2023/10/11 09:17:51;;;;;;;20.77;14.57;;;;;;;;;;5035570;28;20436;-82
2023/10/11 09:20:23;;;;;;;23.83;15.73;;;;;;;;;;5037280;28;20448;-79
2023/10/11 09:22:52;;;;;;;28.03;15.00;;;;;;;;;;5035099;28;20452;-79
2023/10/11 09:25:23;;;;;;;18.23;14.37;;;;;;;;;;5036129;28;20485;-80
2023/10/11 09:27:49;;;;;;;27.57;16.53;;;;;;;;;;5035457;28;20456;-79
2023/10/11 09:30:19;;;;;;;21.67;15.57;;;;;;;;;;5036759;28;20455;-80
2023/10/11 09:32:49;;;;;;;23.03;15.47;;;;;;;;;;5035982;28;20960;-79
2023/10/11 09:35:23;;;;;;;22.57;16.43;;;;;;;;;;5036738;28;20551;-80
2023/10/11 09:37:50;;;;;;;29.60;17.80;;;;;;;;;;5036071;28;20984;-79
2023/10/11 09:40:18;;;;;;;20.23;15.43;;;;;;;;;;5035501;28;20829;-79
2023/10/11 09:42:44;;;;;;;20.33;14.70;;;;;;;;;;5035672;28;20436;-79
2023/10/11 09:45:16;;;;;;;22.93;15.10;;;;;;;;;;5035978;28;20484;-81
2023/10/11 09:47:44;;;;;;;29.47;16.83;;;;;;;;;;5036132;28;20482;-80
2023/10/11 09:50:15;;;;;;;26.03;16.63;;;;;;;;;;5036444;28;20463;-81
2023/10/11 09:52:45;;;;;;;21.90;14.73;;;;;;;;;;5034443;28;20527;-80
2023/10/11 09:55:17;;;;;;;26.57;18.10;;;;;;;;;;5035434;28;20523;-79
2023/10/11 09:57:50;;;;;;;27.40;16.53;;;;;;;;;;5036729;28;20422;-80
2023/10/11 10:00:19;;;;;;;27.33;18.70;;;;;;;;;;5036282;28;20511;-79
2023/10/11 10:02:50;;;;;;;20.90;15.87;;;;;;;;;;5036188;28;20463;-82
2023/10/11 10:05:22;;;;;;;24.90;17.60;;;;;;;;;;5035719;28;20498;-79
2023/10/11 10:07:51;;;;;;;26.33;18.30;;;;;;;;;;5034706;28;20436;-80
2023/10/11 10:10:25;;;;;;;28.03;18.70;;;;;;;;;;5035757;28;20441;-79
2023/10/11 10:12:58;;;;;;;23.73;17.97;;;;;;;;;;5034588;28;20506;-79
2023/10/11 10:15:28;;;;;;;31.43;19.40;;;;;;;;;;5035932;28;20475;-79
2023/10/11 10:18:13;;;;;;;30.07;20.47;;;;;;;;;;5034142;28;21008;-80
2023/10/11 10:20:41;;;;;;;31.43;19.83;;;;;;;;;;5035939;28;20498;-79
2023/10/11 10:23:29;;;;;;;32.83;19.57;;;;;;;;;;5033992;28;21005;-79
2023/10/11 10:26:15;;;;;;;29.47;20.50;;;;;;;;;;5035941;28;20460;-80
2023/10/11 10:28:52;;;;;;;28.50;18.90;;;;;;;;;;5035041;28;20499;-79
2023/10/11 10:31:20;;;;;;;33.40;19.67;;;;;;;;;;5035902;28;20436;-81
2023/10/11 10:33:50;;;;;;;29.43;21.00;;;;;;;;;;5035248;28;20483;-81
2023/10/11 10:36:35;;;;;;;29.47;20.40;;;;;;;;;;5035278;28;20453;-79
2023/10/11 10:42:12;;;;;;;28.23;20.70;;;;;;;;;;5035244;28;20520;-81
2023/10/11 10:44:49;;;;;;;31.37;22.50;;;;;;;;;;5034502;28;20473;-81
2023/10/11 10:47:21;;;;;;;35.37;22.60;;;;;;;;;;5033838;28;20895;-81
2023/10/11 10:49:50;;;;;;;36.60;23.60;;;;;;;;;;5034956;28;20990;-81
2023/10/11 10:52:17;;;;;;;31.43;22.83;;;;;;;;;;5034506;28;20457;-83
2023/10/11 10:54:54;;;;;;;31.80;24.03;;;;;;;;;;5034925;28;20468;-81
2023/10/11 10:57:23;;;;;;;35.50;22.27;;;;;;;;;;5034992;28;20923;-81
2023/10/11 10:59:50;;;;;;;38.17;24.40;;;;;;;;;;5034380;28;20476;-81
2023/10/11 11:02:19;;;;;;;33.37;23.10;;;;;;;;;;5034428;28;20441;-81
2023/10/11 11:04:46;;;;;;;31.80;24.47;;;;;;;;;;5034295;28;20487;-81
2023/10/11 11:07:22;;;;;;;34.17;23.70;;;;;;;;;;5035289;28;20453;-82
2023/10/11 11:09:48;;;;;;;30.07;21.87;;;;;;;;;;5034781;28;20499;-81
2023/10/11 11:12:17;;;;;;;33.27;23.87;;;;;;;;;;5035134;28;20463;-82
2023/10/11 11:14:51;;;;;;;34.50;23.53;;;;;;;;;;5035170;28;20469;-80
2023/10/11 11:17:19;;;;;;;29.20;22.33;;;;;;;;;;5034981;28;20495;-79
2023/10/11 11:19:59;;;;;;;32.93;23.63;;;;;;;;;;5034614;28;20469;-80
2023/10/11 11:22:38;;;;;;;32.90;21.73;;;;;;;;;;5035223;28;20942;-81
2023/10/11 11:25:16;;;;;;;32.63;22.87;;;;;;;;;;5034416;28;20542;-80
2023/10/11 11:27:44;;;;;;;32.03;22.67;;;;;;;;;;5034449;28;20449;-81
2023/10/11 11:30:17;;;;;;;33.87;23.90;;;;;;;;;;5035147;28;20449;-81
2023/10/11 11:32:45;;;;;;;31.20;20.53;;;;;;;;;;5034986;28;20448;-80
2023/10/11 11:35:28;;;;;;;36.70;23.77;;;;;;;;;;5036802;28;20496;-81
2023/10/11 11:38:03;;;;;;;32.80;24.67;;;;;;;;;;5038489;28;20825;-80
2023/10/11 11:40:30;;;;;;;34.67;23.47;;;;;;;;;;5038844;28;20494;-81
2023/10/11 11:43:01;;;;;;;29.30;21.40;;;;;;;;;;5036615;28;20463;-80
2023/10/11 11:45:29;;;;;;;36.30;23.57;;;;;;;;;;5038293;28;20491;-80
2023/10/11 11:47:57;;;;;;;34.33;24.60;;;;;;;;;;5039161;28;20957;-80
2023/10/11 11:50:22;;;;;;;33.20;22.13;;;;;;;;;;5038136;28;20445;-79
2023/10/11 11:52:48;;;;;;;37.93;24.20;;;;;;;;;;5036372;28;20989;-82
2023/10/11 11:55:16;;;;;;;33.80;24.40;;;;;;;;;;5039117;28;20218;-80
2023/10/11 11:57:42;;;;;;;35.87;22.20;;;;;;;;;;5037047;28;20468;-80
2023/10/11 12:00:37;;;;;;;34.93;23.60;;;;;;;;;;5038408;28;20449;-80
2023/10/11 12:03:04;;;;;;;29.60;21.53;;;;;;;;;;5038256;28;20464;-80
2023/10/11 12:05:37;;;;;;;31.80;20.97;;;;;;;;;;5038772;28;20514;-80
2023/10/11 12:08:04;;;;;;;28.77;20.60;;;;;;;;;;5037833;28;20518;-80
2023/10/11 12:10:32;;;;;;;28.20;22.10;;;;;;;;;;5038702;28;20449;-79
2023/10/11 12:13:05;;;;;;;29.20;20.30;;;;;;;;;;5038237;28;20862;-80
2023/10/11 12:15:33;;;;;;;32.60;21.10;;;;;;;;;;5038398;28;20583;-79
2023/10/11 12:17:59;;;;;;;30.57;21.17;;;;;;;;;;5038372;28;20526;-80
2023/10/11 12:20:33;;;;;;;28.93;18.37;;;;;;;;;;5037134;28;20436;-80
2023/10/11 12:23:07;;;;;;;29.13;19.77;;;;;;;;;;5038325;28;20487;-81
2023/10/11 12:25:34;;;;;;;23.27;17.80;;;;;;;;;;5038259;28;20523;-80
2023/10/11 12:28:02;;;;;;;25.30;18.40;;;;;;;;;;5035431;28;20475;-79
2023/10/11 12:30:28;;;;;;;28.60;18.70;;;;;;;;;;5036538;28;20449;-81
2023/10/11 12:32:57;;;;;;;23.53;17.90;;;;;;;;;;5037654;28;20457;-79
2023/10/11 12:35:23;;;;;;;25.93;17.43;;;;;;;;;;5038155;28;20532;-80
2023/10/11 12:37:49;;;;;;;24.23;17.80;;;;;;;;;;5037478;28;20964;-80
2023/10/11 12:40:22;;;;;;;27.63;16.90;;;;;;;;;;5037931;28;20448;-81
2023/10/11 12:42:48;;;;;;;22.47;17.10;;;;;;;;;;5039024;28;20789;-79
2023/10/11 12:45:16;;;;;;;23.33;16.20;;;;;;;;;;5038348;28;20854;-80
2023/10/11 12:47:43;;;;;;;20.93;16.27;;;;;;;;;;5019351;28;21022;-82
2023/10/11 12:50:13;;;;;;;20.80;15.60;;;;;;;;;;5036820;28;20464;-80
2023/10/11 12:52:40;;;;;;;22.27;15.43;;;;;;;;;;5037323;28;20425;-81
2023/10/11 12:55:07;;;;;;;19.60;16.23;;;;;;;;;;5037739;28;20463;-80
2023/10/11 12:57:37;;;;;;;22.33;14.87;;;;;;;;;;5035556;28;20544;-81
2023/10/11 13:00:15;;;;;;;19.17;13.40;;;;;;;;;;5036551;28;20820;-79
2023/10/11 13:02:48;;;;;;;22.77;14.63;;;;;;;;;;5037454;28;20421;-81
2023/10/11 13:05:16;;;;;;;19.00;13.50;;;;;;;;;;5036003;28;21014;-80
2023/10/11 13:07:43;;;;;;;19.47;13.47;;;;;;;;;;5037339;28;20977;-79
2023/10/11 13:10:09;;;;;;;20.53;15.40;;;;;;;;;;5037364;28;20511;-79
2023/10/11 13:12:37;;;;;;;20.27;14.30;;;;;;;;;;5034282;28;20445;-80
2023/10/11 13:15:08;;;;;;;18.63;12.53;;;;;;;;;;5037725;28;20463;-81
2023/10/11 13:17:34;;;;;;;21.33;14.23;;;;;;;;;;5037176;28;20431;-80
2023/10/11 13:20:08;;;;;;;20.13;14.00;;;;;;;;;;5037015;28;20441;-80
2023/10/11 13:22:36;;;;;;;25.90;13.43;;;;;;;;;;5019265;28;20498;-81
2023/10/11 13:25:03;;;;;;;17.20;12.73;;;;;;;;;;5037240;28;20488;-79
2023/10/11 13:27:31;;;;;;;18.87;13.03;;;;;;;;;;5037400;28;20444;-82
2023/10/11 13:30:01;;;;;;;18.00;13.60;;;;;;;;;;5035361;28;20472;-79
2023/10/11 13:32:28;;;;;;;18.73;12.70;;;;;;;;;;5035474;28;20824;-80
2023/10/11 13:34:55;;;;;;;21.43;14.10;;;;;;;;;;5036318;28;20538;-79
2023/10/11 13:37:22;;;;;;;20.23;13.00;;;;;;;;;;5037078;28;20444;-81
2023/10/11 13:39:50;;;;;;;19.13;11.63;;;;;;;;;;5036698;28;20472;-79
2023/10/11 13:42:16;;;;;;;20.93;13.60;;;;;;;;;;5036534;28;20449;-79
2023/10/11 13:44:43;;;;;;;23.03;12.87;;;;;;;;;;5036211;28;20472;-80
2023/10/11 13:47:10;;;;;;;18.00;12.60;;;;;;;;;;5036736;28;20452;-79
2023/10/11 13:49:37;;;;;;;16.90;12.87;;;;;;;;;;5035441;28;20458;-79
2023/10/11 13:52:04;;;;;;;16.07;11.83;;;;;;;;;;5036701;28;20898;-79
2023/10/11 13:54:36;;;;;;;19.73;12.40;;;;;;;;;;5036547;28;20473;-79
2023/10/11 13:57:07;;;;;;;16.10;11.90;;;;;;;;;;5036021;28;20449;-79
2023/10/11 13:59:37;;;;;;;20.50;12.60;;;;;;;;;;5035584;28;20475;-81
2023/10/11 14:02:26;;;;;;;20.93;12.43;;;;;;;;;;5036117;28;20460;-80
2023/10/11 14:04:56;;;;;;;22.90;12.60;;;;;;;;;;5035107;28;20475;-81
2023/10/11 14:07:26;;;;;;;14.70;11.13;;;;;;;;;;5035551;28;20456;-82
2023/10/11 14:09:54;;;;;;;19.70;13.23;;;;;;;;;;5036373;28;20445;-80
2023/10/11 14:12:25;;;;;;;24.67;13.63;;;;;;;;;;5035553;28;20531;-79
2023/10/11 14:14:51;;;;;;;23.60;12.90;;;;;;;;;;5035889;28;20496;-81
2023/10/11 14:17:18;;;;;;;19.47;13.47;;;;;;;;;;5035861;28;20487;-80
2023/10/11 14:19:45;;;;;;;20.30;13.07;;;;;;;;;;5036431;28;20437;-80
2023/10/11 14:22:12;;;;;;;20.70;14.10;;;;;;;;;;5036619;28;20479;-79
2023/10/11 14:24:38;;;;;;;16.57;11.83;;;;;;;;;;5036120;28;21001;-80
2023/10/11 14:27:06;;;;;;;21.00;12.90;;;;;;;;;;5035617;28;20472;-80
2023/10/11 14:29:37;;;;;;;15.47;11.93;;;;;;;;;;5034807;28;20896;-80
2023/10/11 14:32:03;;;;;;;17.10;11.27;;;;;;;;;;5035769;28;20496;-79
2023/10/11 14:34:30;;;;;;;20.63;12.70;;;;;;;;;;5036308;28;21005;-80
2023/10/11 14:36:57;;;;;;;21.50;12.10;;;;;;;;;;5035654;28;20482;-80
2023/10/11 14:39:23;;;;;;;18.70;11.80;;;;;;;;;;5036042;28;20539;-79
2023/10/11 14:41:51;;;;;;;15.87;10.97;;;;;;;;;;5017513;28;20510;-80
2023/10/11 14:44:17;;;;;;;20.50;12.10;;;;;;;;;;5035345;28;20492;-79
2023/10/11 14:46:47;;;;;;;19.90;12.43;;;;;;;;;;5034041;28;20480;-79
2023/10/11 14:49:13;;;;;;;15.90;11.23;;;;;;;;;;5035550;28;20985;-80
2023/10/11 14:51:39;;;;;;;16.97;12.27;;;;;;;;;;5035463;28;20476;-80
2023/10/11 14:54:06;;;;;;;20.80;13.53;;;;;;;;;;5035298;28;20518;-80
2023/10/11 14:56:35;;;;;;;18.30;11.97;;;;;;;;;;5017986;28;20468;-79
2023/10/11 14:59:01;;;;;;;18.20;12.17;;;;;;;;;;5035768;28;20444;-81
2023/10/11 15:01:27;;;;;;;20.07;13.03;;;;;;;;;;5034321;28;20472;-80